Time;durP1;ratioP1;P1;durP2;ratioP2;P2;SDS_P1;SDS_P2;PMS_P1;PMS_P2;Temp;Humidity;BMP_temperature;BMP_pressure;BME280_temperature;BME280_humidity;BME280_pressure;Samples;Min_cycle;Max_cycle;Signal;HPM_P1;HPM_P2
2022/11/18 00:00:49;;;;;;;;;;;17.80;99.90;;;;;;5097597;28;20352;-76
2022/11/18 00:03:15;;;;;;;12.85;2.03;;;17.80;99.90;;;;;;5116005;28;19908;-76
2022/11/18 00:05:42;;;;;;;12.15;2.03;;;17.80;99.90;;;;;;5115854;28;20186;-76
2022/11/18 00:08:09;;;;;;;8.85;1.92;;;17.80;99.90;;;;;;5115458;28;20024;-75
2022/11/18 00:10:38;;;;;;;12.77;2.20;;;17.80;99.90;;;;;;5115334;28;20047;-77
2022/11/18 00:15:49;;;;;;;14.45;3.13;;;17.80;99.90;;;;;;5095378;28;20174;-76
2022/11/18 00:18:17;;;;;;;14.52;2.38;;;17.70;99.90;;;;;;5095207;28;20099;-76
2022/11/18 00:20:43;;;;;;;8.52;2.15;;;17.60;99.90;;;;;;5100952;28;20031;-77
2022/11/18 00:23:10;;;;;;;15.45;2.75;;;17.70;99.90;;;;;;5116205;28;20099;-76
2022/11/18 00:25:36;;;;;;;19.83;2.42;;;17.60;99.90;;;;;;5115656;28;20065;-75
2022/11/18 00:28:03;;;;;;;12.77;2.35;;;17.60;99.90;;;;;;5096719;28;20019;-76
2022/11/18 00:30:29;;;;;;;15.75;2.72;;;17.60;99.90;;;;;;5115233;28;20023;-76
2022/11/18 00:32:55;;;;;;;13.20;2.35;;;17.60;99.90;;;;;;5115006;28;20072;-76
2022/11/18 00:35:21;;;;;;;12.57;1.92;;;17.60;99.90;;;;;;5115264;28;20031;-76
2022/11/18 00:37:47;;;;;;;11.95;2.03;;;17.60;99.90;;;;;;5115300;28;20028;-77
2022/11/18 00:40:13;;;;;;;23.40;2.75;;;17.60;99.90;;;;;;5115210;28;20027;-77
2022/11/18 00:42:51;;;;;;;15.23;2.15;;;17.60;99.90;;;;;;5115275;28;20026;-76
2022/11/18 00:45:20;;;;;;;14.45;2.00;;;17.60;99.90;;;;;;5115387;28;20031;-76
2022/11/18 00:47:46;;;;;;;11.70;2.40;;;17.60;99.90;;;;;;5096501;28;20519;-76
2022/11/18 00:50:13;;;;;;;19.35;2.72;;;17.60;99.90;;;;;;5112360;28;20210;-77
2022/11/18 00:52:39;;;;;;;9.38;2.08;;;17.60;99.90;;;;;;5079597;28;20024;-76
2022/11/18 00:55:06;;;;;;;15.60;2.70;;;17.60;99.90;;;;;;5110640;28;20035;-76
2022/11/18 00:57:32;;;;;;;11.82;1.83;;;17.60;99.90;;;;;;5114767;28;20340;-76
2022/11/18 00:59:58;;;;;;;13.07;2.00;;;17.60;99.90;;;;;;5099740;28;20036;-75
2022/11/18 01:02:24;;;;;;;16.30;2.67;;;17.60;99.90;;;;;;5094502;28;20158;-76
2022/11/18 01:04:50;;;;;;;16.83;2.42;;;17.70;99.90;;;;;;5094589;28;20031;-76
2022/11/18 01:07:16;;;;;;;14.27;2.83;;;17.70;99.90;;;;;;5107118;28;20374;-76
2022/11/18 01:09:42;;;;;;;16.30;2.30;;;17.70;99.90;;;;;;5113100;28;20086;-77
2022/11/18 01:14:54;;;;;;;19.02;2.58;;;17.60;99.90;;;;;;5114741;28;20081;-76
2022/11/18 01:17:20;;;;;;;12.40;2.25;;;17.60;99.90;;;;;;5096064;28;20455;-76
2022/11/18 01:19:46;;;;;;;14.13;2.25;;;17.60;99.90;;;;;;5096264;28;20031;-76
2022/11/18 01:22:12;;;;;;;18.65;2.65;;;17.60;99.90;;;;;;5095856;28;20020;-76
2022/11/18 01:24:38;;;;;;;15.45;2.13;;;17.60;99.90;;;;;;5114593;28;20024;-76
2022/11/18 01:27:04;;;;;;;10.23;1.90;;;17.60;99.90;;;;;;5108781;28;20063;-76
2022/11/18 01:29:30;;;;;;;22.20;2.47;;;17.50;99.90;;;;;;5075150;28;20031;-77
2022/11/18 01:31:56;;;;;;;17.85;2.00;;;17.60;99.90;;;;;;5106918;28;20486;-76
2022/11/18 01:34:22;;;;;;;20.03;2.20;;;17.60;99.90;;;;;;5095540;28;20055;-76
2022/11/18 01:36:51;;;;;;;14.60;2.30;;;17.60;99.90;;;;;;5114026;28;20352;-76
2022/11/18 01:39:17;;;;;;;14.75;2.38;;;17.60;99.90;;;;;;5113975;28;20019;-75
2022/11/18 01:41:43;;;;;;;10.60;1.88;;;17.60;99.90;;;;;;5114067;28;20020;-76
2022/11/18 01:44:47;;;;;;;19.88;2.95;;;17.60;99.90;;;;;;5110965;28;20031;-77
2022/11/18 01:47:13;;;;;;;10.32;2.03;;;17.60;99.90;;;;;;5077186;28;20025;-76
2022/11/18 01:49:39;;;;;;;12.32;2.13;;;17.60;99.90;;;;;;5084048;28;20051;-77
2022/11/18 01:52:05;;;;;;;11.25;2.30;;;17.60;99.90;;;;;;5076803;28;20028;-75
2022/11/18 01:54:43;;;;;;;13.18;2.40;;;17.60;99.90;;;;;;5054944;28;20380;-75
2022/11/18 01:57:16;;;;;;;21.40;2.65;;;17.60;99.90;;;;;;5072988;28;20105;-76
2022/11/18 01:59:45;;;;;;;19.27;2.88;;;17.60;99.90;;;;;;5073259;28;20052;-76
2022/11/18 02:02:14;;;;;;;12.23;1.95;;;17.60;99.90;;;;;;5054874;28;20078;-77
2022/11/18 02:04:44;;;;;;;12.82;2.38;;;17.70;99.90;;;;;;5072817;28;20048;-77
2022/11/18 02:07:12;;;;;;;16.88;2.53;;;17.70;99.90;;;;;;5055155;28;20028;-76
2022/11/18 02:09:38;;;;;;;15.68;2.30;;;17.70;99.90;;;;;;5072882;28;20031;-77
2022/11/18 02:12:06;;;;;;;13.88;2.40;;;17.70;99.90;;;;;;5073135;28;20056;-77
2022/11/18 02:14:37;;;;;;;15.70;2.30;;;17.70;99.90;;;;;;5072597;28;20037;-77
2022/11/18 02:17:32;;;;;;;13.60;2.55;;;17.70;99.90;;;;;;5073066;28;20032;-77
2022/11/18 02:20:27;;;;;;;14.27;2.25;;;17.80;99.90;;;;;;5072434;28;20376;-76
2022/11/18 02:23:34;;;;;;;13.15;2.03;;;17.80;99.90;;;;;;5072878;28;20025;-76
2022/11/18 02:26:36;;;;;;;20.30;2.50;;;17.80;99.90;;;;;;5010887;28;20022;-76
2022/11/18 02:29:30;;;;;;;19.35;3.15;;;17.80;99.90;;;;;;5072652;28;20036;-76
2022/11/18 02:32:21;;;;;;;20.60;2.50;;;17.90;99.90;;;;;;5061619;28;20422;-76
2022/11/18 02:35:08;;;;;;;10.98;2.63;;;17.90;99.90;;;;;;5072423;28;20119;-75
2022/11/18 02:37:54;;;;;;;15.70;2.65;;;18.00;99.90;;;;;;5072413;28;20035;-76
2022/11/18 02:40:29;;;;;;;20.45;2.38;;;18.00;99.90;;;;;;5054181;28;20028;-77
2022/11/18 02:43:20;;;;;;;23.38;2.80;;;18.00;99.90;;;;;;5072581;28;20098;-76
2022/11/18 02:45:53;;;;;;;21.23;2.85;;;18.10;99.90;;;;;;5063416;28;20094;-76
2022/11/18 02:48:23;;;;;;;18.13;2.97;;;18.10;99.90;;;;;;5072500;28;20024;-75
2022/11/18 02:50:51;;;;;;;21.58;2.97;;;18.10;99.90;;;;;;5072226;28;20027;-77
2022/11/18 02:53:20;;;;;;;20.33;3.00;;;18.10;99.90;;;;;;5061246;28;20375;-76
2022/11/18 02:55:48;;;;;;;17.42;2.70;;;18.10;99.90;;;;;;5092193;28;20361;-77
2022/11/18 02:58:17;;;;;;;14.52;2.80;;;18.10;99.90;;;;;;5092103;28;20028;-76
2022/11/18 03:00:44;;;;;;;21.73;3.08;;;18.10;99.90;;;;;;5092268;28;20032;-76
2022/11/18 03:03:31;;;;;;;17.38;3.38;;;18.10;99.90;;;;;;5100266;28;20016;-76
2022/11/18 03:06:25;;;;;;;15.95;2.47;;;18.20;99.90;;;;;;5071684;28;20461;-75
2022/11/18 03:09:13;;;;;;;19.45;3.20;;;18.20;99.90;;;;;;5053678;28;20028;-76
2022/11/18 03:11:55;;;;;;;21.10;3.45;;;18.20;99.90;;;;;;5071442;28;20052;-75
2022/11/18 03:14:27;;;;;;;19.85;3.13;;;18.30;99.90;;;;;;5071792;28;20028;-76
2022/11/18 03:17:00;;;;;;;21.20;3.47;;;18.30;99.90;;;;;;5071490;28;20048;-75
2022/11/18 03:19:52;;;;;;;24.58;3.00;;;18.30;99.90;;;;;;5053495;28;20029;-77
2022/11/18 03:22:30;;;;;;;25.88;3.65;;;18.30;99.90;;;;;;5071864;28;20032;-76
2022/11/18 03:25:02;;;;;;;23.08;3.33;;;18.20;99.90;;;;;;5071928;28;20032;-76
2022/11/18 03:27:38;;;;;;;25.02;3.75;;;18.30;99.90;;;;;;5071498;28;20487;-77
2022/11/18 03:30:14;;;;;;;20.57;3.27;;;18.30;99.90;;;;;;5071585;28;20042;-77
2022/11/18 03:32:45;;;;;;;21.33;3.35;;;18.20;99.90;;;;;;5052558;28;20064;-76
2022/11/18 03:35:17;;;;;;;27.70;3.17;;;18.20;99.90;;;;;;5071135;28;20039;-75
2022/11/18 03:37:44;;;;;;;25.70;3.58;;;18.10;99.90;;;;;;5071292;28;20044;-75
2022/11/18 03:40:28;;;;;;;22.08;3.85;;;18.20;99.90;;;;;;5101288;28;20015;-77
2022/11/18 03:43:03;;;;;;;19.85;3.40;;;18.10;99.90;;;;;;5106145;28;20047;-77
2022/11/18 03:46:14;;;;;;;20.45;3.20;;;18.20;99.90;;;;;;5111374;28;20099;-76
2022/11/18 03:48:53;;;;;;;20.92;3.10;;;18.10;99.90;;;;;;5111352;28;20043;-77
2022/11/18 03:51:30;;;;;;;19.08;2.80;;;18.10;99.90;;;;;;5088010;28;20440;-76
2022/11/18 03:54:02;;;;;;;15.68;2.50;;;18.10;99.90;;;;;;5091216;28;20055;-76
2022/11/18 03:56:34;;;;;;;22.27;3.15;;;18.00;99.90;;;;;;5072272;28;20097;-76
2022/11/18 03:59:26;;;;;;;15.63;2.45;;;18.00;99.90;;;;;;5091224;28;20024;-76
2022/11/18 04:02:16;;;;;;;15.45;2.13;;;18.00;99.90;;;;;;5090820;28;20023;-76
2022/11/18 04:04:45;;;;;;;14.70;2.10;;;18.00;99.90;;;;;;5090787;28;20024;-76
2022/11/18 04:07:42;;;;;;;12.55;2.53;;;18.00;99.90;;;;;;5091037;28;20073;-76
2022/11/18 04:10:19;;;;;;;12.52;2.40;;;18.00;99.90;;;;;;5008968;28;20053;-77
2022/11/18 04:12:58;;;;;;;12.13;2.22;;;18.00;99.90;;;;;;5009344;28;20064;-75
2022/11/18 04:15:24;;;;;;;13.98;2.38;;;18.00;99.90;;;;;;5009380;28;20470;-75
2022/11/18 04:17:50;;;;;;;9.13;1.90;;;17.90;99.90;;;;;;5009034;28;20449;-76
2022/11/18 04:20:19;;;;;;;14.35;2.13;;;17.90;99.90;;;;;;5008544;28;20060;-76
2022/11/18 04:22:45;;;;;;;9.63;2.28;;;17.90;99.90;;;;;;5023871;28;20437;-75
2022/11/18 04:25:11;;;;;;;15.02;2.67;;;17.90;99.90;;;;;;5029029;28;20113;-76
2022/11/18 04:27:37;;;;;;;12.23;2.10;;;17.90;99.90;;;;;;5029171;28;20037;-77
2022/11/18 04:30:05;;;;;;;11.15;2.13;;;17.90;99.90;;;;;;5029352;28;20561;-77
2022/11/18 04:32:31;;;;;;;10.48;2.30;;;17.90;99.90;;;;;;5029295;28;20030;-76
2022/11/18 04:34:57;;;;;;;9.52;2.00;;;17.90;99.90;;;;;;5029091;28;20041;-76
2022/11/18 04:37:24;;;;;;;13.15;2.20;;;17.90;99.90;;;;;;5029208;28;20410;-76
2022/11/18 04:39:50;;;;;;;10.90;2.60;;;17.90;99.90;;;;;;5029523;28;20033;-77
2022/11/18 04:42:16;;;;;;;9.93;2.10;;;17.90;99.90;;;;;;5029326;28;20041;-76
2022/11/18 04:44:42;;;;;;;12.25;2.55;;;17.90;99.90;;;;;;5031758;28;20088;-76
2022/11/18 04:47:08;;;;;;;14.23;2.53;;;17.90;99.90;;;;;;5071526;28;20059;-77
2022/11/18 04:49:35;;;;;;;16.35;2.30;;;17.90;99.90;;;;;;5097099;28;20031;-77
2022/11/18 04:52:01;;;;;;;12.88;2.35;;;17.90;99.90;;;;;;5106523;28;20031;-76
2022/11/18 04:54:28;;;;;;;13.02;2.20;;;18.00;99.90;;;;;;5115284;28;20051;-76
2022/11/18 04:56:55;;;;;;;13.30;2.35;;;17.90;99.90;;;;;;5115264;28;20023;-76
2022/11/18 04:59:23;;;;;;;15.05;2.53;;;17.90;99.90;;;;;;5115467;28;20362;-76
2022/11/18 05:01:50;;;;;;;13.60;2.47;;;17.90;99.90;;;;;;5115187;28;20522;-76
2022/11/18 05:04:19;;;;;;;10.18;2.15;;;17.90;99.90;;;;;;5115130;28;20088;-76
2022/11/18 05:06:45;;;;;;;10.10;2.13;;;17.90;99.90;;;;;;5114842;28;20156;-76
2022/11/18 05:09:11;;;;;;;15.00;2.40;;;17.90;99.90;;;;;;5115325;28;20375;-75
2022/11/18 05:14:25;;;;;;;12.60;2.22;;;17.80;99.90;;;;;;5115356;28;20088;-76
2022/11/18 05:16:52;;;;;;;16.83;2.58;;;17.80;99.90;;;;;;5115057;28;20031;-76
2022/11/18 05:19:18;;;;;;;12.77;2.30;;;17.90;99.90;;;;;;5116027;28;20448;-77
2022/11/18 05:21:44;;;;;;;12.40;2.58;;;17.90;99.90;;;;;;5116157;28;20479;-76
2022/11/18 05:24:10;;;;;;;17.05;2.53;;;17.90;99.90;;;;;;5096960;28;20023;-76
2022/11/18 05:26:36;;;;;;;13.57;2.20;;;18.00;99.90;;;;;;5115333;28;20489;-75
2022/11/18 05:29:03;;;;;;;17.70;2.55;;;17.90;99.90;;;;;;5115862;28;20035;-76
2022/11/18 05:31:29;;;;;;;11.60;2.10;;;17.90;99.90;;;;;;5115521;28;20020;-75
2022/11/18 05:33:55;;;;;;;14.55;2.72;;;18.00;99.90;;;;;;5115017;28;20467;-76
2022/11/18 05:36:22;;;;;;;14.90;2.85;;;18.00;99.90;;;;;;5115538;28;20314;-77
2022/11/18 05:38:48;;;;;;;18.65;2.47;;;18.00;99.90;;;;;;5115024;28;20050;-76
2022/11/18 05:44:02;;;;;;;19.63;2.97;;;18.00;99.90;;;;;;5112321;28;20076;-75
2022/11/18 05:46:28;;;;;;;20.80;3.35;;;18.10;99.90;;;;;;5074277;28;20514;-77
2022/11/18 05:48:54;;;;;;;20.52;2.95;;;18.10;99.90;;;;;;5056888;28;20363;-75
2022/11/18 05:51:22;;;;;;;20.95;2.80;;;18.10;99.90;;;;;;5074635;28;20461;-76
2022/11/18 05:53:50;;;;;;;21.30;3.53;;;18.10;99.90;;;;;;5080844;28;20466;-77
2022/11/18 05:56:39;;;;;;;20.33;3.40;;;18.20;99.90;;;;;;5084078;28;20036;-77
2022/11/18 05:59:05;;;;;;;17.33;2.78;;;18.10;99.90;;;;;;5084634;28;20414;-75
2022/11/18 06:01:43;;;;;;;21.83;2.83;;;18.10;99.90;;;;;;5082666;28;20059;-77
2022/11/18 06:04:26;;;;;;;13.25;2.92;;;18.10;99.90;;;;;;5082645;28;20078;-77
2022/11/18 06:07:20;;;;;;;15.82;2.45;;;18.10;99.90;;;;;;5081941;28;20095;-75
2022/11/18 06:09:58;;;;;;;18.00;3.28;;;18.10;99.90;;;;;;5084131;28;20365;-74
2022/11/18 06:12:27;;;;;;;19.67;3.08;;;18.10;99.90;;;;;;5095228;28;20067;-77
2022/11/18 06:15:00;;;;;;;19.08;2.40;;;18.10;99.90;;;;;;5087423;28;20176;-74
2022/11/18 06:17:35;;;;;;;14.55;2.85;;;18.20;99.90;;;;;;5081852;28;20028;-76
2022/11/18 06:20:03;;;;;;;24.52;3.35;;;18.20;99.90;;;;;;5073894;28;20020;-75
2022/11/18 06:22:30;;;;;;;17.77;2.75;;;18.20;99.90;;;;;;5073928;28;20107;-75
2022/11/18 06:24:56;;;;;;;16.15;2.63;;;18.30;99.90;;;;;;5073446;28;20032;-76
2022/11/18 06:27:22;;;;;;;21.45;3.00;;;18.50;99.90;;;;;;5073482;28;20025;-77
2022/11/18 06:29:48;;;;;;;19.33;3.40;;;18.50;99.90;;;;;;5054662;28;20024;-77
2022/11/18 06:32:14;;;;;;;17.73;3.10;;;18.50;99.90;;;;;;5072758;28;20031;-76
2022/11/18 06:34:40;;;;;;;18.27;2.88;;;18.60;99.90;;;;;;5072758;28;20024;-76
2022/11/18 06:37:14;;;;;;;24.50;2.70;;;18.60;99.90;;;;;;5072813;28;20042;-76
2022/11/18 06:39:40;;;;;;;16.25;2.80;;;18.60;99.90;;;;;;5072926;28;20111;-76
2022/11/18 06:42:06;;;;;;;17.98;2.72;;;18.60;99.90;;;;;;5072286;28;20086;-76
2022/11/18 06:44:32;;;;;;;18.27;2.55;;;18.70;99.90;;;;;;5053651;28;20047;-76
2022/11/18 06:46:58;;;;;;;23.42;3.45;;;18.70;99.90;;;;;;5053300;28;20031;-76
2022/11/18 06:49:26;;;;;;;15.90;3.03;;;19.00;99.90;;;;;;5071724;28;20072;-74
2022/11/18 06:51:53;;;;;;;18.65;3.83;;;19.80;99.90;;;;;;5053128;28;20035;-80
2022/11/18 06:54:21;;;;;;;18.60;3.85;;;20.60;99.90;;;;;;5087397;28;20055;-83
2022/11/18 06:56:47;;;;;;;16.55;4.30;;;21.30;99.90;;;;;;5105433;28;20088;-83
2022/11/18 06:59:13;;;;;;;26.60;4.63;;;22.30;99.90;;;;;;5112015;28;20177;-83
2022/11/18 07:01:40;;;;;;;;;;;23.10;99.90;;;;;;5113087;28;20050;-83
2022/11/18 07:04:06;;;;;;;19.35;4.40;;;23.50;99.90;;;;;;5112308;28;19908;-81
2022/11/18 07:06:34;;;;;;;16.67;4.43;;;23.60;99.90;;;;;;5112321;28;20028;-84
2022/11/18 07:09:03;;;;;;;19.60;5.28;;;23.30;99.90;;;;;;5113211;28;20026;-83
2022/11/18 07:11:30;;;;;;;20.30;4.80;;;22.70;99.90;;;;;;5112625;28;20074;-83
2022/11/18 07:13:56;;;;;;;20.42;4.00;;;22.20;99.90;;;;;;5112601;28;20103;-82
2022/11/18 07:16:24;;;;;;;13.45;3.10;;;21.70;99.90;;;;;;5112381;28;20032;-82
2022/11/18 07:18:51;;;;;;;19.55;3.30;;;21.50;99.90;;;;;;5094739;28;20020;-82
2022/11/18 07:21:20;;;;;;;16.15;2.95;;;21.10;99.90;;;;;;5095008;28;20034;-82
2022/11/18 07:23:46;;;;;;;19.45;3.10;;;20.90;99.90;;;;;;5112742;28;20079;-81
2022/11/18 07:26:16;;;;;;;20.15;4.05;;;20.70;99.90;;;;;;5113211;28;20035;-80
2022/11/18 07:28:42;;;;;;;15.82;4.00;;;20.60;99.90;;;;;;5113103;28;20024;-80
2022/11/18 07:31:11;;;;;;;18.92;4.13;;;20.40;99.90;;;;;;5112960;28;20028;-81
2022/11/18 07:33:38;;;;;;;15.98;2.88;;;20.40;99.90;;;;;;5113125;28;20099;-81
2022/11/18 07:36:09;;;;;;;19.67;3.47;;;20.20;99.90;;;;;;5112961;28;20047;-79
2022/11/18 07:38:35;;;;;;;17.02;3.88;;;20.20;99.90;;;;;;5113011;28;20090;-82
2022/11/18 07:41:12;;;;;;;27.00;4.35;;;20.20;99.90;;;;;;5108719;28;20020;-81
2022/11/18 07:43:40;;;;;;;20.85;4.80;;;20.10;99.90;;;;;;5098338;28;20046;-81
2022/11/18 07:46:26;;;;;;;17.35;4.15;;;20.00;99.90;;;;;;5092238;28;20395;-79
2022/11/18 07:48:54;;;;;;;21.00;3.90;;;19.90;99.90;;;;;;5092860;28;20467;-82
2022/11/18 07:51:23;;;;;;;20.17;4.13;;;19.90;99.90;;;;;;5093162;28;20021;-82
2022/11/18 07:53:49;;;;;;;18.85;4.15;;;19.80;99.90;;;;;;5092249;28;20107;-80
2022/11/18 07:56:16;;;;;;;15.30;3.40;;;19.80;99.90;;;;;;5092504;28;20032;-82
2022/11/18 07:58:42;;;;;;;;;;;19.80;99.90;;;;;;5092612;28;20092;-82
2022/11/18 08:01:13;;;;;;;10.45;2.53;;;19.80;99.90;;;;;;5092083;28;19904;-82
2022/11/18 08:03:40;;;;;;;13.68;2.65;;;19.70;99.90;;;;;;5093202;28;20490;-76
2022/11/18 08:06:08;;;;;;;13.38;2.67;;;19.70;99.90;;;;;;5092223;28;20491;-80
2022/11/18 08:08:43;;;;;;;11.80;2.58;;;19.80;99.90;;;;;;5074241;28;20043;-80
2022/11/18 08:11:12;;;;;;;13.30;2.28;;;19.80;99.90;;;;;;5091583;28;20471;-80
2022/11/18 08:13:38;;;;;;;15.45;3.33;;;19.80;99.90;;;;;;5091209;28;20055;-81
2022/11/18 08:16:15;;;;;;;16.92;3.15;;;19.90;99.90;;;;;;5091989;28;20337;-80
2022/11/18 08:18:41;;;;;;;11.85;2.72;;;19.90;99.90;;;;;;5093893;28;20012;-81
2022/11/18 08:21:08;;;;;;;15.93;3.20;;;19.90;99.90;;;;;;5096172;28;20043;-81
2022/11/18 08:23:34;;;;;;;16.98;3.45;;;19.90;99.90;;;;;;5095687;28;20503;-81
2022/11/18 08:26:13;;;;;;;13.25;2.90;;;19.90;99.90;;;;;;5096226;28;20020;-81
2022/11/18 08:28:43;;;;;;;13.13;2.83;;;20.00;99.90;;;;;;5096054;28;20105;-80
2022/11/18 08:31:23;;;;;;;11.82;2.63;;;20.00;99.90;;;;;;5095781;28;20102;-82
2022/11/18 08:33:57;;;;;;;18.98;2.80;;;20.10;99.90;;;;;;5096230;28;20111;-82
2022/11/18 08:36:26;;;;;;;16.38;2.88;;;20.10;99.90;;;;;;5095844;28;20499;-81
2022/11/18 08:38:53;;;;;;;16.63;3.15;;;20.30;99.90;;;;;;5095443;28;20040;-80
2022/11/18 08:41:28;;;;;;;19.50;5.30;;;20.70;99.90;;;;;;5095282;28;20039;-81
2022/11/18 08:43:54;;;;;;;14.50;3.58;;;20.90;99.90;;;;;;5095429;28;20051;-82
2022/11/18 08:46:20;;;;;;;19.15;3.53;;;21.30;99.90;;;;;;5095282;28;20468;-81
2022/11/18 08:48:46;;;;;;;11.80;3.00;;;21.60;99.90;;;;;;5095072;28;20486;-82
2022/11/18 08:51:13;;;;;;;16.05;3.67;;;21.70;99.90;;;;;;5095065;28;20020;-82
2022/11/18 08:53:39;;;;;;;15.35;3.40;;;21.90;99.90;;;;;;5094856;28;20024;-82
2022/11/18 08:56:05;;;;;;;19.48;4.47;;;21.80;99.90;;;;;;5095089;28;20036;-83
2022/11/18 08:58:31;;;;;;;21.20;5.22;;;21.80;99.90;;;;;;5094988;28;20043;-82
2022/11/18 09:00:57;;;;;;;17.42;4.15;;;21.60;99.90;;;;;;5094580;28;20035;-82
2022/11/18 09:03:23;;;;;;;14.95;3.55;;;21.50;99.90;;;;;;5094826;28;20038;-82
2022/11/18 09:05:49;;;;;;;16.90;4.53;;;21.50;99.90;;;;;;5076176;28;20050;-82
2022/11/18 09:08:15;;;;;;;21.80;3.85;;;21.60;99.90;;;;;;5094449;28;20099;-83
2022/11/18 09:10:48;;;;;;;18.67;4.38;;;21.60;99.90;;;;;;5093944;28;20090;-83
2022/11/18 09:13:14;;;;;;;19.60;4.47;;;21.40;99.90;;;;;;5094094;28;20051;-82
2022/11/18 09:15:40;;;;;;;21.60;6.75;;;21.50;99.90;;;;;;5094298;28;20055;-82
2022/11/18 09:18:07;;;;;;;18.33;4.35;;;21.40;99.90;;;;;;5076402;28;20421;-82
2022/11/18 09:20:34;;;;;;;23.65;3.78;;;21.30;99.90;;;;;;5076397;28;20043;-82
2022/11/18 09:23:00;;;;;;;22.25;3.13;;;21.30;99.90;;;;;;5076600;28;20161;-82
2022/11/18 09:25:26;;;;;;;16.80;2.97;;;21.30;99.90;;;;;;5095072;28;20085;-83
2022/11/18 09:27:54;;;;;;;22.00;4.82;;;21.30;99.90;;;;;;5095363;28;20016;-81
2022/11/18 09:30:20;;;;;;;20.00;5.60;;;21.50;99.90;;;;;;5093999;28;20024;-81
2022/11/18 09:32:46;;;;;;;18.98;5.55;;;21.70;99.90;;;;;;5095045;28;20043;-81
2022/11/18 09:35:13;;;;;;;21.42;5.32;;;21.90;99.90;;;;;;5094702;28;20105;-81
2022/11/18 09:37:39;;;;;;;;;;;22.00;99.90;;;;;;5095421;28;20021;-82
2022/11/18 09:40:05;;;;;;;24.80;5.38;;;22.20;99.90;;;;;;5094777;28;19949;-82
2022/11/18 09:42:38;;;;;;;;;;;22.40;99.90;;;;;;5095467;28;20099;-83
2022/11/18 09:45:24;;;;;;;19.15;5.03;;;22.50;99.90;;;;;;5094377;28;19957;-83
2022/11/18 09:47:51;;;;;;;22.95;5.72;;;22.40;99.90;;;;;;5096804;28;20031;-82
2022/11/18 09:50:21;;;;;;;25.40;4.00;;;22.60;99.90;;;;;;5094633;28;20055;-83
2022/11/18 09:53:27;;;;;;;20.52;3.90;;;22.50;99.90;;;;;;5094544;28;20421;-83
2022/11/18 09:55:54;;;;;;;18.33;3.67;;;22.50;99.90;;;;;;5094377;28;20035;-83
2022/11/18 09:58:32;;;;;;;18.55;4.38;;;22.70;99.90;;;;;;5094817;28;20106;-83
2022/11/18 10:00:59;;;;;;;19.75;3.80;;;22.70;99.90;;;;;;5094156;28;20028;-83
2022/11/18 10:03:31;;;;;;;18.70;3.75;;;22.50;99.90;;;;;;5094251;28;20016;-84
2022/11/18 10:06:03;;;;;;;18.42;4.68;;;22.50;99.90;;;;;;5094098;28;20028;-83
2022/11/18 10:08:38;;;;;;;26.30;5.38;;;22.50;99.90;;;;;;5093441;28;20016;-83
2022/11/18 10:11:23;;;;;;;18.98;3.72;;;22.50;99.90;;;;;;5093795;28;20044;-83
2022/11/18 10:17:28;;;;;;;19.27;3.83;;;22.30;99.90;;;;;;5093731;28;20135;-84
2022/11/18 10:20:13;;;;;;;18.65;4.18;;;22.30;99.90;;;;;;5075119;28;20321;-84
2022/11/18 10:22:51;;;;;;;21.67;3.75;;;22.20;99.90;;;;;;5093425;28;20031;-83
2022/11/18 10:25:17;;;;;;;23.38;4.15;;;22.00;99.90;;;;;;5093239;28;20039;-82
2022/11/18 10:27:46;;;;;;;17.42;3.90;;;22.10;99.90;;;;;;5093267;28;20102;-84
2022/11/18 10:30:14;;;;;;;21.42;3.90;;;22.10;99.90;;;;;;5092777;28;20039;-84
2022/11/18 10:33:01;;;;;;;20.67;3.70;;;22.20;99.90;;;;;;5092585;28;20051;-86
2022/11/18 10:35:36;;;;;;;22.27;3.78;;;22.10;99.90;;;;;;5097166;28;20035;-83
2022/11/18 10:38:17;;;;;;;26.52;4.82;;;22.00;99.90;;;;;;5101543;28;20019;-83
2022/11/18 10:41:16;;;;;;;18.02;4.15;;;22.20;99.90;;;;;;5074642;28;20371;-82
2022/11/18 10:43:53;;;;;;;22.90;3.80;;;22.20;99.90;;;;;;5092644;28;20024;-79
2022/11/18 10:46:26;;;;;;;23.60;3.95;;;22.00;99.90;;;;;;5092401;28;20024;-82
2022/11/18 10:49:08;;;;;;;24.83;3.55;;;22.00;99.90;;;;;;5092789;28;20119;-80
2022/11/18 10:51:48;;;;;;;23.42;4.07;;;21.70;99.90;;;;;;5094863;28;20069;-81
2022/11/18 10:54:19;;;;;;;16.08;3.33;;;21.80;99.90;;;;;;5074518;28;20027;-83
2022/11/18 10:56:50;;;;;;;24.10;3.33;;;21.70;99.90;;;;;;5092359;28;20127;-82
2022/11/18 10:59:47;;;;;;;22.13;3.63;;;21.70;99.90;;;;;;5092638;28;20020;-83
2022/11/18 11:02:19;;;;;;;24.92;3.53;;;21.80;99.90;;;;;;5092950;28;20491;-83
2022/11/18 11:04:48;;;;;;;26.00;3.83;;;21.70;99.90;;;;;;5092226;28;20410;-81
2022/11/18 11:07:31;;;;;;;20.70;3.72;;;21.80;99.90;;;;;;5092271;28;20043;-83
2022/11/18 11:10:12;;;;;;;17.88;3.67;;;22.00;99.90;;;;;;5092539;28;20502;-83
2022/11/18 11:12:48;;;;;;;22.55;3.40;;;22.10;99.90;;;;;;5092870;28;20384;-83
2022/11/18 11:15:27;;;;;;;;;;;22.20;99.90;;;;;;5093458;28;20073;-84
2022/11/18 11:20:46;;;;;;;22.77;3.60;;;22.60;99.90;;;;;;5093744;28;20119;-82
2022/11/18 11:23:16;;;;;;;27.85;3.60;;;22.70;99.90;;;;;;5093250;28;20020;-82
2022/11/18 11:25:47;;;;;;;23.45;3.50;;;22.80;99.90;;;;;;5093264;28;20020;-85
2022/11/18 11:28:48;;;;;;;19.98;3.28;;;22.80;99.90;;;;;;5093293;28;20020;-83
2022/11/18 11:31:47;;;;;;;21.85;3.17;;;22.80;99.90;;;;;;5093081;28;20089;-84
2022/11/18 11:34:31;;;;;;;17.55;2.72;;;23.20;99.90;;;;;;5093032;28;20028;-83
2022/11/18 11:37:09;;;;;;;17.50;2.80;;;23.10;99.90;;;;;;5093769;28;20111;-79
2022/11/18 11:40:18;;;;;;;15.52;2.83;;;23.20;99.90;;;;;;5095412;28;20417;-83
2022/11/18 11:43:06;;;;;;;15.18;3.22;;;23.10;99.90;;;;;;5093644;28;20031;-83
2022/11/18 11:46:09;;;;;;;14.27;2.30;;;23.20;99.90;;;;;;5092808;28;20031;-84
2022/11/18 11:48:57;;;;;;;12.55;2.53;;;23.10;99.90;;;;;;5091407;28;20024;-81
2022/11/18 11:51:43;;;;;;;9.82;2.20;;;23.10;99.90;;;;;;5091511;28;20020;-81
2022/11/18 11:54:49;;;;;;;12.80;2.60;;;23.20;99.90;;;;;;5090894;28;20104;-82
2022/11/18 11:57:36;;;;;;;16.05;2.55;;;22.90;99.90;;;;;;5091888;28;20032;-82
2022/11/18 12:00:10;;;;;;;14.43;2.30;;;23.00;99.90;;;;;;5092408;28;20095;-82
2022/11/18 12:02:57;;;;;;;11.75;1.92;;;22.90;99.90;;;;;;5091489;28;20032;-82
2022/11/18 12:05:38;;;;;;;13.48;2.03;;;23.00;99.90;;;;;;5090592;28;20034;-83
2022/11/18 12:08:14;;;;;;;14.43;2.33;;;22.90;99.90;;;;;;5091055;28;20016;-82
2022/11/18 12:10:52;;;;;;;14.57;2.35;;;22.80;99.90;;;;;;5091166;28;20222;-82
2022/11/18 12:13:42;;;;;;;12.02;2.10;;;22.80;99.90;;;;;;5091642;28;20028;-82
2022/11/18 12:16:14;;;;;;;11.88;1.85;;;22.90;99.90;;;;;;5091950;28;20044;-81
2022/11/18 12:18:49;;;;;;;10.40;2.25;;;22.90;99.90;;;;;;5091686;28;20046;-80
2022/11/18 12:21:45;;;;;;;11.13;2.20;;;23.00;99.90;;;;;;5091727;28;20031;-81
2022/11/18 12:24:29;;;;;;;8.63;1.80;;;23.10;99.90;;;;;;5092101;28;20084;-81
2022/11/18 12:27:09;;;;;;;7.93;1.77;;;23.20;99.90;;;;;;5091620;28;20125;-80
2022/11/18 12:29:49;;;;;;;9.88;2.10;;;23.20;99.90;;;;;;5091744;28;20066;-81
2022/11/18 12:32:29;;;;;;;11.30;2.22;;;22.90;99.90;;;;;;5091850;28;20020;-82
2022/11/18 12:35:03;;;;;;;14.75;2.40;;;22.80;99.90;;;;;;5091277;28;20096;-81
2022/11/18 12:37:29;;;;;;;15.65;2.53;;;22.70;99.90;;;;;;5091807;28;20131;-80
2022/11/18 12:39:58;;;;;;;15.38;2.40;;;22.70;99.90;;;;;;5091587;28;20421;-81
2022/11/18 12:45:44;;;;;;;15.50;2.08;;;23.00;99.90;;;;;;5094006;28;20051;-81
2022/11/18 12:48:23;;;;;;;12.13;2.05;;;22.80;99.90;;;;;;5075017;28;20089;-78
2022/11/18 12:51:00;;;;;;;10.48;2.03;;;22.90;99.90;;;;;;5097978;28;20032;-75
2022/11/18 12:53:50;;;;;;;13.57;2.30;;;23.00;99.90;;;;;;5086550;28;20020;-75
2022/11/18 12:56:25;;;;;;;12.82;2.60;;;23.00;99.90;;;;;;5080668;28;20346;-80
2022/11/18 12:58:56;;;;;;;18.30;2.50;;;22.90;99.90;;;;;;5091737;28;20012;-80
2022/11/18 13:01:27;;;;;;;11.02;1.85;;;22.90;99.90;;;;;;5091521;28;20028;-80
2022/11/18 13:04:14;;;;;;;15.00;2.25;;;22.90;99.90;;;;;;5091516;28;20020;-80
2022/11/18 13:06:40;;;;;;;12.35;2.08;;;22.70;99.90;;;;;;5094734;28;20079;-80
2022/11/18 13:09:23;;;;;;;13.07;2.05;;;22.70;99.90;;;;;;5094623;28;20077;-79
2022/11/18 13:11:53;;;;;;;12.25;2.33;;;22.70;99.90;;;;;;5094530;28;20063;-78
2022/11/18 13:20:32;;;;;;;14.15;2.20;;;22.90;99.90;;;;;;5095062;28;20023;-78
2022/11/18 13:26:25;;;;;;;16.00;2.65;;;22.80;99.90;;;;;;5095349;28;20534;-79
2022/11/18 13:29:11;;;;;;;13.73;2.65;;;22.80;99.90;;;;;;5094964;28;20024;-78
2022/11/18 13:31:46;;;;;;;18.10;2.25;;;22.80;99.90;;;;;;5094831;28;20078;-78
2022/11/18 13:34:18;;;;;;;15.43;2.40;;;23.10;99.90;;;;;;5095324;28;20472;-79
2022/11/18 13:36:46;;;;;;;17.67;2.90;;;23.10;99.90;;;;;;5095377;28;20031;-79